< < Back
Terminal Aerodrome Forecast


Current Version              Previous Versions:   1  2  3  4  5  6  7  8  9  

Terminal Aerodrome Forecast

741
FTUS42 KJAX 081913 AAA
TAFSSI
TAF AMD
KSSI 081913Z 0819/0918 23015G25KT P6SM FEW250
     FM082100 24016G26KT P6SM FEW050 SCT250
     FM082300 25014G21KT P6SM VCSH SCT030 BKN060
     FM090400 28013G20KT P6SM FEW050 SCT250
     FM091200 26015G25KT P6SM FEW250=



Latest METAR

766
SAUS70 KWBC 090500 RRE
MTRSSI
METAR KSSI 090453Z AUTO 26007KT 10SM OVC095 09/07 A2983 RMK AO2 SLP101
T00890067 401720039 $


USA.gov is the U.S. government's official web portal to all federal, state and local government web resources and services.